Tiempo atmosférico en la estación meteorológica de Reinosa, Cantabria (875 m.)



Fecha
DESCASC
Temp. máxima en grados centígrados (hora)
DESCASC
Temp. mínima en grados centígrados (hora)
DESCASC
Temp. media en grados centígrados
DESCASC
Racha de viento máxima en m/sg (hora)
DESCASC
Velocidad máxima media en intervalos de 10 minutos(hora)
DESCASC
Precipitaciones diarias en mm
DESCASC
Precipitaciones de 00:00 a 06:00 en mm
DESCASC
Precipitaciones de 06:00 a 12:00 en mm
DESCASC
Precipitaciones de 12:00 a 18:00 en mm
DESCASC
Precipitaciones de 18:00 a 24:00 en mm
DESCASC
25-04-2019 11.6 (16:00) 3.2 (08:10) 7.4 21.11 (07:30) 13.06 (19:10) 0.5 0.1 0 0 0.4
24-04-2019 10.6 (16:40) 1.3 (10:20) 6 19.72 (16:30) 12.78 (16:30) 7.4 0 4.9 2.3 0.2
23-04-2019 11.9 (18:10) 4.7 (23:59) 8.3 12.5 (04:40) 6.67 (19:10) 1 0 1 0 0
22-04-2019 14.8 (15:50) 3.1 (00:00) 9 10.28 (13:50) 5.56 (13:50) 0 0 0 0 0
21-04-2019 14.8 (12:00) 4 (00:00) 9.4 9.72 (14:50) 5 (18:50) 0 0 0 0 0
20-04-2019 17.7 (15:40) 4.1 (00:00) 10.9 10.83 (11:50) 5.28 (11:50) 0 0 0 0 0
19-04-2019 15.9 (18:30) 6.4 (00:00) 11.1 9.72 (14:30) 5.83 (14:30) 7.8 6.3 1.5 0 0
18-04-2019 12.7 (03:30) 8.1 (00:00) 10.4 15.28 (04:10) 7.78 (04:10) 20.8 1 1.1 5.6 13.1
17-04-2019 17.8 (19:30) 7.3 (00:00) 12.5 20 (21:20) 9.44 (20:30) 1.6 0 0 0 1.6
16-04-2019 16.3 (16:40) 5.8 (00:00) 11 10.28 (15:50) 6.39 (15:30) 0 0 0 0 0
15-04-2019 20.3 (14:10) 7.8 (00:00) 14 23.33 (15:00) 9.44 (14:50) 7.8 0 0 6.6 1.2
14-04-2019 18.7 (15:20) 5.8 (00:00) 12.3 6.67 (16:30) 4.17 (16:30) 0 0 0 0 0
13-04-2019 18.7 (16:10) -2.4 (-00:0) 8.2 9.72 (16:30) 6.11 (16:30) 0 0 0 0 0
12-04-2019 13.8 (17:10) -2 (-00:0) 5.9 7.5 (15:40) 4.17 (18:20) 0 0 0 0 0
11-04-2019 10.3 (16:20) 2.9 (00:00) 6.6 10.56 (15:40) 6.39 (09:00) 1 0 0 0.2 0.8
10-04-2019 9.9 (14:40) -1.5 (-00:0) 4.2 8.89 (20:00) 5.83 (21:10) 1.3 1.2 0 0 0.1
09-04-2019 11.3 (13:50) 0.4 (00:00) 5.9 11.39 (15:40) 5.56 (08:00) 5.8 0 0 5.5 0.3
08-04-2019 14.1 (16:00) 2.1 (00:00) 8.1 10.83 (00:20) 5.83 (05:20) 0 0 0 0 0
07-04-2019 11.1 (14:50) -0.4 (00:00) 5.4 15 (20:00) 8.33 (20:10) 0.3 0.3 0 0 0
06-04-2019 7.8 (15:20) -1.5 (-00:0) 3.2 11.11 (11:50) 5.83 (17:10) 4.2 0 0 0 4.2
05-04-2019 8.9 (14:30) 1.7 (00:00) 5.3 13.89 (03:10) 6.67 (05:50) 1.6 1.6 0 0 0
04-04-2019 9.5 (16:10) -7.4 (-00:0) 1 15.56 (16:30) 9.44 (16:30) 0.2 0.2 0 0 0
03-04-2019 6 (16:40) -1.7 (-00:0) 2.1 15.83 (17:20) 10.56 (17:20) 0.5 0 0.2 0 0.3
02-04-2019 11.8 (15:20) -1.7 (-00:0) 5.1 8.61 (21:30) 5.28 (12:50) 0.3 0 0 0.3 0
01-04-2019 15 (16:40) -1.7 (-00:0) 6.6 7.22 (17:10) 4.72 (17:20) 0 0 0 0 0
31-03-2019 17.2 (18:00) -0.5 (-00:0) 8.4 8.61 (14:00) 6.11 (14:30) 0 0 0 0 0
30-03-2019 17.5 (15:20) 0.4 (00:00) 9 11.67 (06:50) 5.56 (07:00) 0 0 0 0 0
29-03-2019 17.1 (15:50) -3.4 (-00:0) 6.9 10.83 (14:00) 5.83 (14:00) 0 0 0 0 0
28-03-2019 13.2 (14:50) -4 (-00:0) 4.6 8.33 (12:40) 6.11 (12:30) 0 0 0 0 0
27-03-2019 13.8 (16:10) -5.4 (-00:0) 4.2 8.33 (17:10) 5 (15:00) 0 0 0 0 0

Gráficas

Temp. máximas Temp. mínimas Temp. medias Precipitaciones Rachas de viento máximas Velocidades máximas media en intervalos de 10 minutos

Datos horarios

Fecha y hora oficial Temperatura (ºC) Velocidad del viento (km/h) Dirección del viento Racha (km/h) Dirección de racha Precipitación (mm) Presión (hPa) Tendencia (hPa) Humedad (%)
2019-04-25 23:00:00 6 8 Sudoeste 22 Oeste 0 911.6 3.8 65
2019-04-25 22:00:00 5.9 2 Sur 32 Sudoeste 0 910.3 3.4 63
2019-04-25 21:00:00 6.3 16 Oeste 42 Oeste 0 908.7 3.4 62
2019-04-25 20:00:00 6.5 22 Sudoeste 73 Sudoeste 0.4 907.8 2.3 70
2019-04-25 19:00:00 9 37 Sudoeste 66 Sudoeste 0 906.9 1.1 48
2019-04-25 18:00:00 10.2 44 Sudoeste 70 Sudoeste 0 905.3 -0.3 43
2019-04-25 17:00:00 10.8 34 Sudoeste 66 Sudoeste 0 905.5 -0.7 44
2019-04-25 16:00:00 11.3 28 Sudoeste 58 Sudoeste 0 905.8 -0.4 49
2019-04-25 15:00:00 10.7 27 Sudoeste 50 Sudoeste 0 905.6 0.2 51
2019-04-25 14:00:00 9 18 Sudoeste 40 Sudoeste 0 906.2 1.7 55
2019-04-25 13:00:00 8.1 18 Sur 49 Sudoeste 0 906.2 2.8 61
2019-04-25 12:00:00 7.8 26 Sudoeste 51 Sudoeste 0 905.4 2 65
2019-04-25 11:00:00 6.1 28 Sudoeste 51 Sudoeste 0 904.5 1.6 65
2019-04-25 10:00:00 5.6 25 Sudoeste 53 Sudoeste 0 903.4 1.5 74
2019-04-25 09:00:00 3.7 27 Sudoeste 50 Sudoeste 0 903.4 1.8 78
2019-04-25 08:00:00 3.4 26 Sudoeste 76 Sur 0 902.9 1.8 78
2019-04-25 07:00:00 3.7 26 Sudoeste 47 Sudoeste 0 901.9 0.7 76
2019-04-25 06:00:00 4.1 25 Sudoeste 51 Sudoeste 0 901.6 0.5 76
2019-04-25 05:00:00 4.9 24 Sudoeste 46 Sudoeste 0 901.1 0.3 73
2019-04-25 04:00:00 4.4 23 Sudoeste 43 Sudoeste 0 901.2 0.8 78
2019-04-25 03:00:00 4.7 22 Sudoeste 43 Sudoeste 0 901.1 1.2 76
2019-04-25 02:00:00 5.4 17 Sur 31 Sur 0.1 900.8 1.2 76
2019-04-25 01:00:00 6.1 14 Sudoeste 41 Sudoeste 0 900.4 1 75
2019-04-25 00:00:00 6.4 24 Sudoeste 46 Sudoeste 0 899.9 1.6 74
2019-04-24 23:00:00 7.5 28 Sudoeste 54 Sudoeste 0 899.6 2 73
2019-04-24 22:00:00 7.7 30 Sudoeste 59 Sudoeste 0 899.4 2 72
2019-04-24 21:00:00 8.4 30 Sudoeste 55 Sudoeste 0 898.3 0.9 69
2019-04-24 20:00:00 8.7 30 Sudoeste 55 Sudoeste 0.1 897.6 1.1 70
2019-04-24 19:00:00 8.7 24 Sudoeste 56 Sudoeste 0.1 897.4 1 73
2019-04-24 18:00:00 8.3 34 Sudoeste 64 Sudoeste 0.3 897.4 1.4 71
2019-04-24 17:00:00 9.8 36 Sudoeste 71 Sudoeste 0 896.5 0.2 64
2019-04-24 16:00:00 9.6 33 Sudoeste 70 Sudoeste 1.1 896.4 -0.9 78
2019-04-24 15:00:00 9 30 Sudoeste 64 Sudoeste 0 896 -2.3 77
2019-04-24 14:00:00 7.2 30 Sudoeste 64 Sudoeste 0.1 896.3 -1.8 83
2019-04-24 13:00:00 4.4 27 Sur 48 Sudeste 0.8 897.3 -1 86
2019-04-24 12:00:00 2.6 27 Sur 46 Sur 1.5 898.3 0.1 88
2019-04-24 11:00:00 2 24 Sur 47 Sur 1.8 898.1 -0.2 92
2019-04-24 10:00:00 1.7 21 Sur 52 Sur 1.5 898.3 -0.7 91
2019-04-24 09:00:00 2.8 27 Sur 62 Sur 0.1 898.2 -0.7 83
2019-04-24 08:00:00 3.8 12 Sur 51 Sur 0 898.3 -0.7 76
2019-04-24 07:00:00 3.7 14 Sur 48 Sur 0 899 -0.1 76
2019-04-24 06:00:00 3.7 20 Sur 50 Sur 0 898.9 -0.5 75
2019-04-24 05:00:00 3.8 17 Sudoeste 37 Sur 0 899 -0.6 73
2019-04-24 04:00:00 4.5 15 Sudoeste 31 Sur 0 899.1 -0.4 72
2019-04-24 03:00:00 4.2 9 Sudoeste 25 Sudoeste 0 899.4 -0.1 73
2019-04-24 02:00:00 4.5 9 Sur 18 Sur 0 899.6 0.6 75
2019-04-24 01:00:00 4.3 9 Sudeste 18 Sudeste 0 899.5 1 86
2019-04-24 00:00:00 4.7 6 Sudeste 12 Este 0 899.5 2.2 85
2019-04-23 23:00:00 5.6 6 Sudeste 15 Noroeste 0 899 2.7 84
2019-04-23 22:00:00 5.7 3 Nordeste 16 Este 0 898.5 3 84
2019-04-23 21:00:00 6.7 12 Este 27 Noroeste 0 897.3 2.1 78
2019-04-23 20:00:00 8.6 14 Oeste 39 Sudoeste 0 896.3 0.6 52
2019-04-23 19:00:00 11.6 14 Sudoeste 31 Sudoeste 0 895.5 -0.1 43
2019-04-23 18:00:00 11.3 17 Sudoeste 31 Sudoeste 0 895.2 -0.9 43
2019-04-23 17:00:00 10.7 17 Sudoeste 37 Sudoeste 0 895.7 -0.1 47
2019-04-23 16:00:00 9.9 14 Sudoeste 38 Sur 0 895.6 0 55
2019-04-23 15:00:00 8.9 13 Sudoeste 38 Sudoeste 0 896.1 0.4 66
2019-04-23 14:00:00 10.2 13 Sur 40 Sudoeste 0 895.8 0.5 61
2019-04-23 13:00:00 9.7 14 Sur 37 Sur 0 895.6 0.9 61
2019-04-23 12:00:00 9.3 17 Sudoeste 33 Sudoeste 0 895.7 0.7 68
2019-04-23 11:00:00 8.7 15 Sur 35 Sudoeste 0 895.3 0.7 73
2019-04-23 10:00:00 9.1 14 Sur 32 Sudoeste 0.7 894.7 0.3 71
2019-04-23 09:00:00 8.3 16 Sudoeste 36 Sudoeste 0.1 895 0.1 77
2019-04-23 08:00:00 8.3 10 Sudoeste 30 Sudoeste 0.2 894.6 -0.7 83
2019-04-23 07:00:00 8.8 12 Sudoeste 40 Sur 0 894.4 -1.2 78
2019-04-23 06:00:00 9.1 18 Sudoeste 40 Sur 0 894.9 -1.1 74
2019-04-23 05:00:00 9.3 13 Sudoeste 45 Sudoeste 0 895.3 -1 71
2019-04-23 04:00:00 10.2 15 Sur 36 Sur 0 895.6 -1.2 65
2019-04-23 03:00:00 10.2 18 Sur 34 Sur 0 896 -1.4 69
2019-04-23 02:00:00 10.9 13 Sur 41 Sur 0 896.3 -1.5 61
2019-04-23 01:00:00 10.2 5 Sudeste 13 Sudeste 0 896.8 -1.1 66
2019-04-23 00:00:00 9.7 6 Sudeste 18 Sur 0 897.4 -0.5 66
2019-04-22 23:00:00 11.2 15 Sur 26 Sur 0 897.8 -0.2 54
2019-04-22 22:00:00 11 3 Este 12 Sur 0 897.9 -0.7 51
2019-04-22 21:00:00 12.2 0 Calma 26 Sudoeste 0 897.9 -1.1 48
2019-04-22 20:00:00 13.4 17 Sudoeste 31 Sur 0 898 -1.2 45
2019-04-22 19:00:00 13.9 14 Sur 30 Sur 0 898.6 -1.1 43
2019-04-22 18:00:00 13.7 11 Sur 36 Sur 0 899 -1.8 48
2019-04-22 17:00:00 13.9 15 Sur 35 Sur 0 899.2 -2.3 47
2019-04-22 16:00:00 14.5 16 Sudoeste 36 Sudoeste 0 899.7 -2.5 49
2019-04-22 15:00:00 13.1 17 Sudoeste 36 Sur 0 900.8 -1.7 50
2019-04-22 14:00:00 13.3 17 Sudoeste 37 Sudoeste 0 901.5 -1.7 49
2019-04-22 13:00:00 13.6 17 Sudoeste 37 Sudoeste 0 902.2 -1.5 52
2019-04-22 12:00:00 13.1 18 Sur 28 Sur 0 902.5 -1.8 49
2019-04-22 11:00:00 12.4 6 Sur 15 Sudoeste 0 903.2 -1.4 54
2019-04-22 10:00:00 9.4 12 Sudeste 19 Sudeste 0 903.7 -1.3 77
2019-04-22 09:00:00 6 3 Oeste 7 Oeste 0 904.3 -1.3 94
2019-04-22 08:00:00 3.7 0 Calma 7 Oeste 0 904.6 -2 94
2019-04-22 07:00:00 4 4 Oeste 7 Oeste 0 905 -2.4 94
2019-04-22 06:00:00 4.1 3 Oeste 7 Sudoeste 0 905.6 -2.8 94
2019-04-22 05:00:00 4.2 2 Sudoeste 7 Oeste 0 906.6 -2.7 94
2019-04-22 04:00:00 6 0 Calma 7 Oeste 0 907.4 -2.6 94
2019-04-22 03:00:00 6.6 5 Oeste 8 Nordeste 0 908.4 -2.4 94
2019-04-22 02:00:00 6.6 5 Nordeste 9 Nordeste 0 909.3 -1.9 94
2019-04-22 01:00:00 7.5 2 Sudoeste 6 Sudeste 0 910 -1.4 94
2019-04-22 00:00:00 7.9 5 Sur 11 Nordeste 0 910.8 -0.4 94
2019-04-21 23:00:00 8 9 Nordeste 18 Nordeste 0 911.2 0 91
2019-04-21 22:00:00 8.3 10 Nordeste 19 Nordeste 0 911.4 0 89
2019-04-21 21:00:00 9.4 6 Nordeste 21 Noroeste 0 911.2 -0.3 78
2019-04-21 20:00:00 9.9 13 Norte 25 Norte 0 911.2 -1 70
2019-04-21 19:00:00 10.8 14 Norte 30 Norte 0 911.4 -1.4 65
2019-04-21 18:00:00 11.7 13 Norte 28 Norte 0 911.5 -1.9 65
2019-04-21 17:00:00 11.4 13 Norte 31 Norte 0 912.2 -1.9 63
2019-04-21 16:00:00 12 17 Nordeste 32 Nordeste 0 912.8 -2.1 59
2019-04-21 15:00:00 12.3 15 Nordeste 35 Nordeste 0 913.4 -1.6 57
2019-04-21 14:00:00 12.8 11 Norte 33 Nordeste 0 914.1 -1.2 54
2019-04-21 13:00:00 12.5 9 Norte 26 Noroeste 0 914.9 -0.6 53
2019-04-21 12:00:00 14.6 9 Norte 24 Nordeste 0 915 -0.9 48
2019-04-21 11:00:00 12 16 Noroeste 25 Noroeste 0 915.3 -0.2 52
2019-04-21 10:00:00 12 13 Norte 26 Norte 0 915.5 -0.2 56
2019-04-21 09:00:00 9.9 6 Este 14 Este 0 915.9 -0.3 59
2019-04-21 08:00:00 9.2 4 Norte 17 Sudeste 0 915.5 -1.7 59
2019-04-21 07:00:00 7.3 3 Noroeste 12 Noroeste 0 915.7 -1.8 73
2019-04-21 06:00:00 4.5 4 Noroeste 8 Noroeste 0 916.2 -1.9 78
2019-04-21 05:00:00 5.4 2 Sur 10 Sudeste 0 917.2 -1.7 76
2019-04-21 04:00:00 5.6 0 Calma 7 Sudeste 0 917.5 -1.9 74
2019-04-21 03:00:00 6.5 0 Calma 6 Sudeste 0 918.1 -1.7 65
2019-04-21 02:00:00 8.6 4 Sudeste 8 Sudeste 0 918.9 -1.1 59
2019-04-21 01:00:00 9.7 3 Noroeste 14 Oeste 0 919.4 -0.5 55
2019-04-21 00:00:00 9.7 6 Oeste 19 Noroeste 0 919.8 0.3 56
2019-04-20 23:00:00 9.9 15 Noroeste 21 Noroeste 0 920 0.6 56
2019-04-20 22:00:00 10 14 Noroeste 27 Noroeste 0 919.9 0.6 54
2019-04-20 21:00:00 10.6 9 Noroeste 15 Norte 0 919.5 0.2 50
2019-04-20 20:00:00 13.8 8 Nordeste 28 Norte 0 919.4 -0.2 42
2019-04-20 19:00:00 15.2 15 Norte 29 Norte 0 919.3 -0.9 39
2019-04-20 18:00:00 16.6 12 Norte 33 Norte 0 919.3 -1.5 39
2019-04-20 17:00:00 17.4 14 Norte 33 Nordeste 0 919.6 -1.7 38
2019-04-20 16:00:00 16.3 19 Nordeste 34 Nordeste 0 920.2 -1.6 39
2019-04-20 15:00:00 16.6 16 Nordeste 35 Nordeste 0 920.8 -1.4 39
2019-04-20 14:00:00 16.3 14 Norte 33 Nordeste 0 921.3 -1.3 38
2019-04-20 13:00:00 16.5 16 Norte 35 Norte 0 921.8 -0.6 37
2019-04-20 12:00:00 15.8 18 Norte 39 Norte 0 922.2 -0.1 39
2019-04-20 11:00:00 15.1 16 Norte 30 Norte 0 922.6 0.3 42
2019-04-20 10:00:00 13.2 5 Norte 21 Noroeste 0 922.4 0.4 67
2019-04-20 09:00:00 12.1 12 Noroeste 27 Noroeste 0 922.3 0.1 75
2019-04-20 08:00:00 10.9 17 Noroeste 26 Noroeste 0 922.3 -0.6 78
2019-04-20 07:00:00 8.9 13 Noroeste 17 Noroeste 0 922 -1 78
2019-04-20 06:00:00 6.8 11 Noroeste 16 Noroeste 0 922.2 -0.9 85
2019-04-20 05:00:00 8.5 10 Noroeste 17 Noroeste 0 922.9 -0.3 82
2019-04-20 04:00:00 5.3 7 Noroeste 10 Noroeste 0 923 -0.8 91
2019-04-20 03:00:00 5.4 3 Sur 4 Sudeste 0 923.1 -0.5 91
2019-04-20 02:00:00 5.4 2 Oeste 7 Este 0 923.2 -0.3 90
2019-04-20 01:00:00 6.2 3 Oeste 5 Sudeste 0 923.8 1.3 92
2019-04-20 00:00:00 7.6 0 Calma 6 Sudoeste 0 923.6 1.8 91
2019-04-19 23:00:00 8.5 0 Calma 5 Sudoeste 0 923.5 2.5 86
2019-04-19 22:00:00 10.1 4 Oeste 14 Nordeste 0 922.5 1.7 78
2019-04-19 21:00:00 12.1 6 Nordeste 13 Nordeste 0 921.8 1.5 73
2019-04-19 20:00:00 14.3 5 Nordeste 15 Nordeste 0 921 0.8 56
2019-04-19 19:00:00 15 6 Nordeste 20 Nordeste 0 920.8 0.3 54
2019-04-19 18:00:00 15.2 7 Nordeste 19 Este 0 920.3 0 52
2019-04-19 17:00:00 14.2 6 Este 18 Este 0 920.2 0 57
2019-04-19 16:00:00 13.8 8 Nordeste 26 Nordeste 0 920.5 0.6 62
2019-04-19 15:00:00 14.3 17 Este 35 Este 0 920.3 0.5 61
2019-04-19 14:00:00 13.4 12 Este 23 Este 0 920.2 1.1 68
2019-04-19 13:00:00 10.9 0 Calma 11 Sudeste 0 919.9 1.4 78
2019-04-19 12:00:00 9.1 5 Oeste 11 Nordeste 0.3 919.8 2 90
2019-04-19 11:00:00 9.5 7 Nordeste 13 Nordeste 0 919.1 2.1 89
2019-04-19 10:00:00 8.7 0 Calma 13 Oeste 0.1 918.5 2.5 86
2019-04-19 09:00:00 8.3 5 Oeste 16 Este 0.3 917.8 2.3 90
2019-04-19 08:00:00 8.3 3 Sudeste 17 Este 0.4 917 1.9 90
2019-04-19 07:00:00 8.3 7 Este 17 Este 0.4 916 0.8 93
2019-04-19 06:00:00 8.3 9 Este 17 Este 0.3 915.5 0.1 93
2019-04-19 05:00:00 8.3 8 Este 17 Nordeste 1.3 915.1 -0.2 94
2019-04-19 04:00:00 8.3 12 Nordeste 24 Nordeste 1.8 915.2 -0.3 94
2019-04-19 03:00:00 8.4 8 Nordeste 26 Nordeste 0.6 915.4 0 93
2019-04-19 02:00:00 8.7 13 Nordeste 26 Nordeste 1.2 915.3 -0.4 93
2019-04-19 01:00:00 8.3 5 Sur 11 Oeste 1.1 915.5 0.3 94
2019-04-19 00:00:00 8.2 7 Oeste 16 Nordeste 2.6 915.4 0.8 94
2019-04-18 23:00:00 8.2 6 Nordeste 22 Nordeste 1.2 915.7 1.3 93
2019-04-18 22:00:00 8.3 10 Nordeste 28 Norte 1.1 915.2 1.2 93
2019-04-18 21:00:00 8.3 5 Nordeste 17 Norte 3.2 914.6 1.1 94
2019-04-18 20:00:00 8.7 3 Este 9 Noroeste 3 914.4 0.9 94
2019-04-18 19:00:00 8.7 4 Oeste 9 Noroeste 2 914 0.3 91
2019-04-18 18:00:00 9.7 0 Calma 6 Nordeste 1 913.5 -0.4 76
2019-04-18 17:00:00 10.3 2 Norte 8 Noroeste 0.1 913.5 -0.4 71
2019-04-18 16:00:00 10 4 Oeste 17 Sur 0.7 913.7 -0.3 74
2019-04-18 15:00:00 9.2 6 Sudeste 13 Sur 1.9 913.9 -0.2 87
2019-04-18 14:00:00 9.2 4 Sur 11 Sudeste 1.4 913.9 0 86
2019-04-18 13:00:00 9.2 6 Sudeste 16 Sudeste 0.5 914 0.5 84
2019-04-18 12:00:00 9.4 6 Sudeste 11 Sur 0.1 914.1 1 83
2019-04-18 11:00:00 8.9 6 Sur 18 Sur 0 913.9 1.1 87
2019-04-18 10:00:00 8.6 11 Sur 19 Sudeste 0 913.5 2 91
2019-04-18 09:00:00 8.4 11 Sur 21 Sur 0.3 913.1 2.4 93
2019-04-18 08:00:00 8.5 13 Sur 30 Sudeste 0.4 912.8 2 91
2019-04-18 07:00:00 8.7 13 Sur 39 Sur 0.3 911.5 0.6 86
2019-04-18 06:00:00 8.6 14 Sur 44 Sudoeste 0.9 910.7 0.5 78
2019-04-18 05:00:00 9.5 27 Sudoeste 55 Sudoeste 0.1 910.8 0.4 72
2019-04-18 04:00:00 10.7 28 Sudoeste 49 Sudoeste 0 910.9 0.4 69
2019-04-18 03:00:00 11.5 12 Sudeste 21 Sur 0 910.2 -0.4 85
2019-04-18 02:00:00 11.4 12 Sudeste 26 Sur 0 910.4 -0.9 85
2019-04-18 01:00:00 11.6 14 Sur 31 Sur 0 910.5 0.3 86
2019-04-18 00:00:00 11.4 11 Sur 31 Sudeste 0.3 910.6 1.7 90
2019-04-17 23:00:00 11.7 16 Sur 38 Sur 1.2 911.3 3.1 86
2019-04-17 22:00:00 14 22 Sur 72 Sur 0.1 910.2 2.1 62
2019-04-17 21:00:00 15.8 27 Sudoeste 63 Sudoeste 0 908.9 0.6 47
2019-04-17 20:00:00 17.3 33 Sur 60 Sur 0 908.2 -0.5 40
2019-04-17 19:00:00 17 17 Sur 29 Sur 0 908.1 -0.8 44
2019-04-17 18:00:00 16.1 17 Sur 50 Sur 0 908.3 -1.3 46
2019-04-17 17:00:00 16 27 Sur 55 Sur 0 908.7 -1.3 46
2019-04-17 16:00:00 17 31 Sur 57 Sur 0 908.9 -1.4 43
2019-04-17 15:00:00 16.4 30 Sur 52 Sur 0 909.6 -0.9 44
2019-04-17 14:00:00 15.7 23 Sur 38 Sur 0 910 -1.2 53
2019-04-17 13:00:00 14.6 19 Sur 36 Sur 0 910.3 -1.1 55
2019-04-17 12:00:00 14 15 Sur 27 Sur 0 910.5 -0.8 62
2019-04-17 11:00:00 12.1 15 Sur 29 Sur 0 911.2 -0.2 66
2019-04-17 10:00:00 10.3 4 Sudeste 16 Sudeste 0 911.4 0.3 75
2019-04-17 09:00:00 9.1 4 Este 10 Este 0 911.3 0.1 76
2019-04-17 08:00:00 8.2 5 Este 11 Nordeste 0 911.4 0.3 78
2019-04-17 07:00:00 8.7 4 Este 20 Sur 0 911.1 -0.8 69
2019-04-17 06:00:00 11.7 12 Sur 43 Sur 0 911.2 -1.2 55
2019-04-17 05:00:00 12.3 18 Sur 41 Sur 0 911.1 -2 54
2019-04-17 04:00:00 11.6 10 Sur 21 Sur 0 911.9 -1.8 58
2019-04-17 03:00:00 11.2 5 Sudeste 18 Sur 0 912.4 -1.5 63
2019-04-17 02:00:00 9.9 5 Este 13 Este 0 913.1 -1.2 74
2019-04-17 01:00:00 10.6 6 Este 13 Sudeste 0 913.7 -0.7 70
2019-04-17 00:00:00 10.4 3 Sur 11 Sur 0 913.9 -0.3 70
2019-04-16 23:00:00 10.5 6 Sur 15 Sudeste 0 914.3 -0.1 52
2019-04-16 22:00:00 12.6 9 Sudeste 12 Sudeste 0 914.4 0 38
2019-04-16 21:00:00 13.7 5 Sur 16 Sur 0 914.2 -0.5 35
2019-04-16 20:00:00 14.7 12 Sur 30 Sur 0 914.4 -0.9 35
2019-04-16 19:00:00 15.7 17 Sur 33 Sur 0 914.4 -1.6 34
2019-04-16 18:00:00 15.6 11 Sur 29 Sur 0 914.7 -1.4 36
2019-04-16 17:00:00 15.6 18 Sur 35 Sur 0 915.3 -1.2 37
2019-04-16 16:00:00 15.2 19 Sur 37 Sur 0 916 -1.1 37
2019-04-16 15:00:00 15.1 22 Sur 35 Sudeste 0 916.1 -1.6 38
2019-04-16 14:00:00 14.4 19 Sur 31 Sudeste 0 916.5 -1.1 45
2019-04-16 13:00:00 12.7 16 Sur 33 Sur 0 917.1 -0.8 49
2019-04-16 12:00:00 10.6 15 Sudeste 34 Sudeste 0 917.7 -0.6 57
2019-04-16 11:00:00 10.5 17 Sudeste 26 Sudeste 0 917.6 -0.4 68
2019-04-16 10:00:00 8.9 13 Sudeste 19 Sudeste 0 917.9 0.2 78
2019-04-16 09:00:00 6.6 2 Sudoeste 15 Sudeste 0 918.3 1.2 91
2019-04-16 08:00:00 5.9 6 Sudeste 12 Sudeste 0 918 0.5 92
2019-04-16 07:00:00 5.9 0 Calma 8 Sudeste 0 917.7 0.4 92
2019-04-16 06:00:00 6.2 4 Sur 9 Sur 0 917.1 -0.2 93
2019-04-16 05:00:00 6.1 3 Este 5 Este 0 917.5 0.2 94
2019-04-16 04:00:00 5.8 0 Calma 9 Nordeste 0 917.3 0 93
2019-04-16 03:00:00 6.4 4 Este 8 Este 0 917.3 0.7 93
2019-04-16 02:00:00 6.3 3 Sudeste 9 Este 0 917.3 1.5 91
2019-04-16 01:00:00 7.2 5 Sur 18 Norte 0 917.3 2.4 88
2019-04-16 00:00:00 7.8 8 Noroeste 19 Noroeste 0 916.6 2.6 84
2019-04-15 23:00:00 8.3 6 Noroeste 22 Norte 0 915.8 3.2 82
2019-04-15 22:00:00 8.6 14 Noroeste 22 Noroeste 0.1 914.9 3.1 85
2019-04-15 21:00:00 8.8 2 Este 14 Este 0.5 914 3.3 92
2019-04-15 20:00:00 9.2 6 Noroeste 22 Este 0.6 912.6 2.4 90
2019-04-15 19:00:00 9.9 15 Nordeste 27 Nordeste 0 911.8 2.5 85
2019-04-15 18:00:00 11.9 8 Norte 29 Nordeste 0 910.7 1.8 84
2019-04-15 17:00:00 11.9 21 Nordeste 35 Nordeste 0 910.2 1.7 94
2019-04-15 16:00:00 15.1 14 Sudoeste 81 Sudoeste 1.2 909.3 0.3 62
2019-04-15 15:00:00 13.5 23 Sudoeste 84 Sudoeste 5.4 908.9 -1 73
2019-04-15 14:00:00 19 20 Sur 61 Sur 0 908.5 -1.6 52
2019-04-15 13:00:00 18.2 21 Sur 57 Sur 0 909 -1.8 55
2019-04-15 12:00:00 16 19 Sur 37 Sur 0 909.9 -1.4 61
2019-04-15 11:00:00 15.5 17 Sur 36 Sur 0 910.1 -1.6 61
2019-04-15 10:00:00 14.5 21 Sur 37 Sur 0 910.8 -0.9 62
2019-04-15 09:00:00 14 11 Sudoeste 28 Sudoeste 0 911.3 -0.9 66
2019-04-15 08:00:00 12.8 9 Este 21 Sudeste 0 911.7 -1.1 72
2019-04-15 07:00:00 12.9 14 Sudeste 23 Sudeste 0 911.7 -1.3 73
2019-04-15 06:00:00 12.4 12 Sudeste 20 Sudeste 0 912.2 -1.2 74
2019-04-15 05:00:00 13.3 10 Sudeste 19 Sudeste 0 912.8 -1.7 71
2019-04-15 04:00:00 12.4 11 Sudeste 24 Sudeste 0 913 -2.1 74
2019-04-15 03:00:00 11.9 15 Sudeste 24 Sudoeste 0 913.4 -1.8 76
2019-04-15 02:00:00 12.7 6 Sur 20 Sur 0 914.5 -1.1 76
2019-04-15 01:00:00 9.8 5 Sur 9 Sur 0 915.1 -0.5 89
2019-04-15 00:00:00 10.7 4 Nordeste 6 Nordeste 0 915.2 -0.1 90
2019-04-14 23:00:00 10.8 4 Noroeste 9 Nordeste 0 915.6 0.6 90
2019-04-14 22:00:00 11.5 0 Calma 9 Nordeste 0 915.6 0.2 86
2019-04-14 21:00:00 14.5 6 Este 9 Este 0 915.3 -0.1 77
2019-04-14 20:00:00 16 6 Este 11 Nordeste 0 915 -1 68
2019-04-14 19:00:00 17.2 7 Nordeste 18 Nordeste 0 915.4 -1.4 62
2019-04-14 18:00:00 17.1 10 Nordeste 19 Este 0 915.4 -1.3 62
2019-04-14 17:00:00 18.1 9 Nordeste 24 Nordeste 0 916 -1 57
2019-04-14 16:00:00 18.2 11 Nordeste 22 Nordeste 0 916.8 0 58
2019-04-14 15:00:00 17.7 9 Nordeste 20 Nordeste 0 916.7 -0.1 54
2019-04-14 14:00:00 17.4 12 Este 20 Este 0 917 0.1 47
2019-04-14 13:00:00 16.8 4 Este 11 Nordeste 0 916.8 -0.1 43
2019-04-14 12:00:00 15.8 5 Nordeste 14 Este 0 916.8 0.3 49
2019-04-14 11:00:00 14.4 4 Este 8 Este 0 916.9 0.3 52
2019-04-14 10:00:00 10.6 3 Sur 11 Sur 0 916.9 0.9 67
2019-04-14 09:00:00 7.9 2 Oeste 6 Oeste 0 916.5 0.1 86
2019-04-14 08:00:00 6.5 5 Sur 8 Sur 0 916.6 -0.2 82
2019-04-14 07:00:00 6.6 4 Sudoeste 10 Noroeste 0 916 -0.5 83
2019-04-14 06:00:00 8.4 8 Sudeste 9 Sudeste 0 916.4 -0.3 78
2019-04-14 05:00:00 8.1 4 Oeste 6 Oeste 0 916.8 -0.2 86
2019-04-14 04:00:00 8.2 2 Sudoeste 5 Noroeste 0 916.5 -0.9 78
2019-04-14 03:00:00 9.3 3 Sur 7 Sudoeste 0 916.7 -1 74
2019-04-14 02:00:00 9.8 2 Sur 5 Sudoeste 0 917 -1 74
2019-04-14 01:00:00 9.7 0 Calma 5 Oeste 0 917.4 -0.1 74
2019-04-14 00:00:00 10.3 0 Calma 4 Noroeste 0 917.7 0.6 69
2019-04-13 23:00:00 10.6 0 Calma 6 Este 0 918 1 62
2019-04-13 22:00:00 11.7 3 Este 5 Este 0 917.5 1.1 52
2019-04-13 21:00:00 12.2 3 Nordeste 14 Nordeste 0 917.1 0.7 44
2019-04-13 20:00:00 13.2 9 Nordeste 24 Este 0 917 0.8 42
2019-04-13 19:00:00 15.5 18 Este 24 Este 0 916.4 0.1 40
2019-04-13 18:00:00 16.1 12 Nordeste 23 Norte 0 916.4 -0.5 42
2019-04-13 17:00:00 17.8 14 Sur 35 Sur 0 916.2 -1.1 33
2019-04-13 16:00:00 17.8 18 Sur 34 Sur 0 916.3 -1.5 33
2019-04-13 15:00:00 17.9 15 Sur 29 Sudeste 0 916.9 -1.4 33
2019-04-13 14:00:00 17.3 14 Sur 25 Sudeste 0 917.3 -1.2 29
2019-04-13 13:00:00 15.9 12 Sudeste 20 Sudeste 0 917.8 -1.1 28
2019-04-13 12:00:00 13 6 Nordeste 12 Nordeste 0 918.3 -0.5 56
2019-04-13 11:00:00 10.2 3 Nordeste 6 Nordeste 0 918.5 -0.4 61
2019-04-13 10:00:00 6.5 2 Este 4 Este 0 918.9 0.2 77
2019-04-13 09:00:00 0.8 0 Calma 3 Oeste 0 918.8 0.4 93
2019-04-13 08:00:00 -1.9 0 Calma 6 Oeste 0 918.9 0.6 93
2019-04-13 07:00:00 -2.1 3 Oeste 7 Oeste 0 918.7 0.2 93
2019-04-13 06:00:00 -0.8 5 Sudoeste 9 Oeste 0 918.4 -0.7 94
2019-04-13 05:00:00 -0.5 4 Oeste 9 Oeste 0 918.3 -1.2 94
2019-04-13 04:00:00 -0.4 5 Oeste 6 Oeste 0 918.5 -0.8 93
2019-04-13 03:00:00 -0.1 3 Oeste 9 Sudoeste 0 919.1 0 93
2019-04-13 02:00:00 1.6 0 Calma 6 Oeste 0 919.5 0 93
2019-04-13 01:00:00 2.3 2 Oeste 10 Sudoeste 0 919.3 0.6 89
2019-04-13 00:00:00 3.5 5 Sudoeste 8 Sudoeste 0 919.1 0.8 90
2019-04-12 23:00:00 3.5 0 Calma 5 Oeste 0 919.5 1.7 91
2019-04-12 22:00:00 4.7 3 Sudoeste 8 Sudeste 0 918.7 0.6 86
2019-04-12 21:00:00 8.3 4 Sur 13 Nordeste 0 918.3 0.4 76
2019-04-12 20:00:00 10.9 8 Nordeste 21 Nordeste 0 917.8 0 59
2019-04-12 19:00:00 11.9 10 Nordeste 22 Nordeste 0 918.1 -0.5 59
2019-04-12 18:00:00 13.2 12 Nordeste 23 Nordeste 0 917.9 -1.3 47
2019-04-12 17:00:00 13.6 10 Nordeste 22 Norte 0 917.8 -1.8 45
2019-04-12 16:00:00 13.1 12 Nordeste 27 Nordeste 0 918.6 -1.1 45
2019-04-12 15:00:00 12.5 9 Este 21 Nordeste 0 919.2 -0.3 43
2019-04-12 14:00:00 12.2 5 Nordeste 17 Nordeste 0 919.6 -0.2 39
2019-04-12 13:00:00 10.8 3 Nordeste 11 Este 0 919.7 -0.2 43
2019-04-12 12:00:00 9.8 5 Nordeste 10 Este 0 919.5 -0.7 55
2019-04-12 11:00:00 8.2 0 Calma 9 Sur 0 919.8 -0.2 66
2019-04-12 10:00:00 3.7 4 Sur 7 Oeste 0 919.9 0.3 88
2019-04-12 09:00:00 0 3 Oeste 8 Noroeste 0 920.2 0.5 95
2019-04-12 08:00:00 -1.9 4 Oeste 7 Oeste 0 920 0.3 95
2019-04-12 07:00:00 0 0 Calma 10 Oeste 0 919.6 -0.1 95
2019-04-12 06:00:00 0.6 5 Oeste 7 Oeste 0 919.7 -0.4 95
2019-04-12 05:00:00 1.1 0 Calma 5 Este 0 919.7 -1 93
2019-04-12 04:00:00 1.5 2 Oeste 7 Sur 0 919.7 -0.9 91
2019-04-12 03:00:00 2.8 3 Norte 18 Norte 0 920.1 -0.5 89
2019-04-12 02:00:00 4.3 4 Nordeste 9 Nordeste 0 920.7 0 92
2019-04-12 01:00:00 4.6 4 Norte 18 Norte 0 920.6 0 90
2019-04-12 00:00:00 5 4 Norte 18 Norte 0 920.6 0.5 93
2019-04-11 23:00:00 4.8 5 Nordeste 15 Nordeste 0.1 920.7 1.1 93
2019-04-11 22:00:00 5.4 7 Norte 19 Noroeste 0.2 920.6 1 91
2019-04-11 21:00:00 5.6 9 Noroeste 26 Noroeste 0.2 920.1 0.8 91
2019-04-11 20:00:00 6 18 Noroeste 28 Noroeste 0.2 919.6 0.4 87
2019-04-11 19:00:00 6.5 8 Norte 23 Noroeste 0.1 919.6 0.5 85
2019-04-11 18:00:00 6.9 13 Norte 27 Noroeste 0.2 919.3 -0.1 84
2019-04-11 17:00:00 8.1 18 Noroeste 33 Noroeste 0 919.2 0 70
2019-04-11 16:00:00 8.6 22 Noroeste 38 Noroeste 0 919.1 -0.1 70
2019-04-11 15:00:00 8.8 14 Noroeste 33 Noroeste 0 919.4 0.4 70
2019-04-11 14:00:00 8.9 18 Noroeste 28 Norte 0 919.2 0.4 67
2019-04-11 13:00:00 8.4 19 Noroeste 29 Noroeste 0 919.2 0.6 64
2019-04-11 12:00:00 8 19 Noroeste 30 Noroeste 0 919 0.7 63
2019-04-11 11:00:00 6.2 18 Noroeste 27 Noroeste 0 918.8 0.5 70
2019-04-11 10:00:00 5.9 15 Norte 31 Noroeste 0 918.6 0.6 70
2019-04-11 09:00:00 5.1 23 Noroeste 30 Noroeste 0 918.3 0.1 74
2019-04-11 08:00:00 4.3 10 Noroeste 26 Noroeste 0 918.3 -0.1 74
2019-04-11 07:00:00 4.3 10 Noroeste 21 Oeste 0 918 -0.2 78
2019-04-11 06:00:00 3.4 9 Noroeste 18 Norte 0 918.2 -0.1 82
2019-04-11 05:00:00 3.4 4 Nordeste 13 Norte 0 918.4 0.1 85
2019-04-11 04:00:00 4 6 Norte 19 Noroeste 0 918.2 -0.4 76
2019-04-11 03:00:00 4.1 7 Noroeste 24 Noroeste 0 918.3 -0.2 83
2019-04-11 02:00:00 3.9 12 Noroeste 28 Noroeste 0 918.3 0 83
2019-04-11 01:00:00 4.9 18 Noroeste 31 Noroeste 0 918.6 0.8 83
2019-04-11 00:00:00 4.8 15 Noroeste 23 Oeste 0 918.5 1.5 87
2019-04-10 23:00:00 4.7 15 Noroeste 26 Noroeste 0 918.3 1.8 85
2019-04-10 22:00:00 4.6 12 Noroeste 27 Noroeste 0.1 917.8 1.9 86
2019-04-10 21:00:00 5.2 20 Noroeste 29 Noroeste 0 917 1.5 84
2019-04-10 20:00:00 5.9 19 Noroeste 32 Noroeste 0 916.5 1.5 82
2019-04-10 19:00:00 7 18 Noroeste 28 Noroeste 0 915.9 1 79
2019-04-10 18:00:00 7.7 17 Noroeste 26 Noroeste 0 915.5 1.2 78
2019-04-10 17:00:00 8.2 15 Noroeste 21 Noroeste 0 915 1.1 75
2019-04-10 16:00:00 7.6 14 Noroeste 23 Norte 0 914.9 1 78
2019-04-10 15:00:00 8.2 18 Norte 26 Norte 0 914.3 0.7 68
2019-04-10 14:00:00 8.9 4 Este 11 Nordeste 0 913.9 0.6 58
2019-04-10 13:00:00 8.5 6 Este 13 Este 0 913.9 1 58
2019-04-10 12:00:00 8.4 5 Sudeste 14 Sudeste 0 913.6 0.7 69
2019-04-10 11:00:00 6.5 7 Sudeste 17 Sudeste 0 913.3 1.1 73
2019-04-10 10:00:00 4.6 4 Sudeste 9 Sudeste 0 912.9 1.1 82
2019-04-10 09:00:00 1.6 2 Noroeste 6 Oeste 0 912.9 1.4 94
2019-04-10 08:00:00 -0.9 4 Oeste 6 Oeste 0 912.2 0.7 94
2019-04-10 07:00:00 -0.1 2 Noroeste 10 Oeste 0 911.8 0 94
2019-04-10 06:00:00 0.9 3 Oeste 9 Noroeste 0 911.5 -0.3 94
2019-04-10 05:00:00 2.4 4 Sudoeste 6 Norte 0.1 911.5 -0.5 93
2019-04-10 04:00:00 3.3 4 Noroeste 7 Noroeste 0.4 911.8 0.3 93
2019-04-10 03:00:00 3.1 5 Sur 9 Oeste 0.2 911.8 0.2 94
2019-04-10 02:00:00 2.7 5 Oeste 9 Oeste 0 912 0.6 94
2019-04-10 01:00:00 3.1 0 Calma 9 Sudoeste 0.5 911.5 0.4 94
2019-04-10 00:00:00 3.6 5 Sudoeste 9 Sudoeste 0.3 911.6 1.1 94
2019-04-09 23:00:00 2.9 3 Sur 6 Sudeste 0 911.4 1.3 94
2019-04-09 22:00:00 2.5 5 Oeste 8 Sudoeste 0 911.1 0.8 94
2019-04-09 21:00:00 3.2 3 Oeste 5 Oeste 0 910.5 0.3 91
2019-04-09 20:00:00 5.6 3 Norte 15 Este 0 910.1 0.2 86
2019-04-09 19:00:00 4.5 2 Este 7 Este 0 910.3 0.8 90
2019-04-09 18:00:00 4.3 7 Este 23 Noroeste 1 910.2 1.5 90
2019-04-09 17:00:00 4.7 9 Noroeste 17 Nordeste 1.8 909.9 1.3 86
2019-04-09 16:00:00 5.6 7 Norte 41 Norte 1.5 909.5 0.4 86
2019-04-09 15:00:00 7.8 13 Nordeste 27 Este 1.2 908.7 -0.6 76
2019-04-09 14:00:00 10.7 15 Sur 29 Sur 0 908.6 -1 57
2019-04-09 13:00:00 8.8 11 Sur 27 Sur 0 909.1 -0.8 64
2019-04-09 12:00:00 7.8 16 Sur 30 Sur 0 909.3 -0.5 70
2019-04-09 11:00:00 6.5 12 Sur 19 Sudoeste 0 909.6 0.3 73
2019-04-09 10:00:00 5.6 12 Sur 25 Sur 0 909.9 0.6 77
2019-04-09 09:00:00 5 13 Sur 34 Sur 0 909.8 0.6 78
2019-04-09 08:00:00 4.6 20 Sur 33 Sur 0 909.3 0 78
2019-04-09 07:00:00 5.6 14 Sudoeste 27 Sur 0 909.3 -0.2 67
2019-04-09 06:00:00 5.6 12 Sudoeste 33 Sur 0 909.2 -0.4 64
2019-04-09 05:00:00 5.3 18 Sur 31 Sur 0 909.3 -0.8 65
2019-04-09 04:00:00 5.1 10 Sur 21 Sur 0 909.5 -0.6 62
2019-04-09 03:00:00 3 2 Sudeste 24 Sudeste 0 909.6 -0.6 86
2019-04-09 02:00:00 0.6 4 Noroeste 9 Noroeste 0 910.1 -0.3 94
2019-04-09 01:00:00 2.1 5 Oeste 7 Sudeste 0 910.1 -0.4 94
2019-04-09 00:00:00 2.3 5 Oeste 7 Oeste 0 910.2 0.2 94
2019-04-08 23:00:00 4.6 2 Sudeste 8 Este 0 910.4 0.5 93
2019-04-08 22:00:00 5.7 3 Nordeste 13 Este 0 910.5 0.4 90
2019-04-08 21:00:00 6.5 8 Este 12 Este 0 910 0.3 86
2019-04-08 20:00:00 8 12 Este 16 Nordeste 0 909.9 0.1 78
2019-04-08 19:00:00 8.5 11 Nordeste 26 Nordeste 0 910.1 0.1 75
2019-04-08 18:00:00 9.9 13 Nordeste 25 Nordeste 0 909.7 -0.6 66
2019-04-08 17:00:00 10.7 9 Nordeste 27 Sudeste 0 909.8 -0.9 61
2019-04-08 16:00:00 12.9 13 Sur 32 Sur 0 910 -0.7 42
2019-04-08 15:00:00 13.2 17 Sudoeste 31 Sudoeste 0 910.3 -0.5 40
2019-04-08 14:00:00 10 15 Nordeste 24 Este 0 910.7 -0.1 78
2019-04-08 13:00:00 8.6 11 Nordeste 19 Este 0 910.7 0.4 84
2019-04-08 12:00:00 8.1 8 Nordeste 15 Este 0 910.8 0.7 82
2019-04-08 11:00:00 7.9 6 Nordeste 12 Este 0 910.8 1.7 83
2019-04-08 10:00:00 7.3 2 Este 9 Nordeste 0 910.3 1.6 84
2019-04-08 09:00:00 6.1 6 Sudeste 14 Este 0 910.1 1.7 86
2019-04-08 08:00:00 5.6 6 Nordeste 12 Nordeste 0 909.1 0.8 87
2019-04-08 07:00:00 5.3 5 Nordeste 29 Sur 0 908.7 -0.1 85
2019-04-08 06:00:00 5.7 15 Sudoeste 31 Sur 0 908.4 -0.4 85
2019-04-08 05:00:00 5.4 17 Sur 28 Sur 0 908.3 -1 85
2019-04-08 04:00:00 6 13 Sur 31 Sudoeste 0 908.8 -0.6 78
2019-04-08 03:00:00 6.5 10 Sur 30 Sudoeste 0 908.8 -0.6 73
2019-04-08 02:00:00 5.8 9 Sudoeste 30 Sudoeste 0 909.3 -0.7 74
2019-04-08 01:00:00 5 18 Sur 39 Sudoeste 0 909.4 -0.6 76
2019-04-08 00:00:00 5.4 19 Sur 37 Sudeste 0 909.4 -0.5 74
2019-04-07 23:00:00 4.5 10 Sudoeste 27 Sudoeste 0 910 1.2 83
2019-04-07 22:00:00 5.1 10 Sur 33 Sudoeste 0 910 1.5 78
2019-04-07 21:00:00 5.9 16 Sudoeste 50 Sudoeste 0 909.9 1.4 76
2019-04-07 20:00:00 7.8 29 Sudoeste 54 Sudoeste 0 908.8 0.5 57
2019-04-07 19:00:00 9.5 12 Sudoeste 40 Sudoeste 0 908.5 0 38
2019-04-07 18:00:00 10.6 12 Sur 45 Sudoeste 0 908.5 -0.1 37
2019-04-07 17:00:00 10.5 19 Sur 38 Sur 0 908.3 -0.5 38
2019-04-07 16:00:00 10.8 17 Sur 34 Sur 0 908.5 -0.3 40
2019-04-07 15:00:00 10.5 16 Sur 27 Sur 0 908.6 -0.2 43
2019-04-07 14:00:00 9.1 10 Sur 22 Sur 0 908.8 0.3 50
2019-04-07 13:00:00 8.4 12 Sudeste 22 Sudeste 0 908.8 0.8 61
2019-04-07 12:00:00 6.1 5 Este 13 Sudeste 0 908.8 1.4 71
2019-04-07 11:00:00 4.5 4 Sur 18 Sur 0 908.5 2.3 78
2019-04-07 10:00:00 2.7 11 Sudeste 15 Sudeste 0 908 2.3 85
2019-04-07 09:00:00 1.3 6 Sudeste 12 Sudeste 0 907.4 2.7 93
2019-04-07 08:00:00 0.9 0 Calma 7 Sur 0 906.2 2 95
2019-04-07 07:00:00 1.1 2 Sur 5 Sudeste 0 905.7 1.6 95
2019-04-07 06:00:00 0.8 4 Oeste 6 Noroeste 0 904.7 1.1 95
2019-04-07 05:00:00 0.8 0 Calma 6 Noroeste 0.1 904.2 1 95
2019-04-07 04:00:00 0.8 2 Sur 5 Sur 0.2 904.1 1.1 95
2019-04-07 03:00:00 0.8 3 Sudeste 9 Noroeste 0 903.6 0.9 95
2019-04-07 02:00:00 0.3 0 Calma 6 Noroeste 0 903.2 0.8 95
2019-04-07 01:00:00 0.1 4 Noroeste 6 Noroeste 0 903 1.1 95
2019-04-07 00:00:00 -0.4 3 Sudoeste 9 Sudeste 0 902.7 1.1 95
2019-04-06 23:00:00 0.6 3 Sudoeste 11 Sudoeste 0 902.4 1.8 95
2019-04-06 22:00:00 0.1 5 Noroeste 10 Este 0.7 901.9 2.3 95
2019-04-06 21:00:00 0.8 9 Oeste 16 Noroeste 2.8 901.6 2.7 94
2019-04-06 20:00:00 3.4 5 Sur 11 Oeste 0.6 900.6 2.8 90
2019-04-06 19:00:00 4.3 4 Oeste 19 Noroeste 0.1 899.6 1.5 82
2019-04-06 18:00:00 5.1 14 Noroeste 33 Sudoeste 0 898.9 0.7 79
2019-04-06 17:00:00 6.5 16 Sudoeste 31 Sur 0 897.8 -0.6 66
2019-04-06 16:00:00 6 15 Sur 34 Sudoeste 0 898.1 -0.4 72
2019-04-06 15:00:00 6 14 Sur 29 Sur 0 898.2 -0.2 73
2019-04-06 14:00:00 5 17 Sur 35 Sur 0 898.4 0.2 70
2019-04-06 13:00:00 5.3 3 Oeste 36 Sudoeste 0 898.5 -0.2 68
2019-04-06 12:00:00 5.1 17 Sudoeste 40 Sudoeste 0 898.4 -0.3 76
2019-04-06 11:00:00 3.9 12 Sur 30 Sudoeste 0 898.2 -0.5 78
2019-04-06 10:00:00 2.8 8 Sur 22 Sudoeste 0 898.7 0.5 84
2019-04-06 09:00:00 2.4 9 Sur 22 Sur 0 898.7 0.1 82
2019-04-06 08:00:00 1.9 9 Sur 32 Sudeste 0 898.7 0.3 83
2019-04-06 07:00:00 1.4 19 Sur 30 Sur 0 898.2 -0.4 83
2019-04-06 06:00:00 1.1 7 Sur 24 Sur 0 898.6 -0.2 82
2019-04-06 05:00:00 0.7 13 Sudeste 31 Sur 0 898.4 -1 86
2019-04-06 04:00:00 0.8 15 Sur 24 Sur 0 898.6 -0.9 88
2019-04-06 03:00:00 -1.3 6 Sudoeste 10 Sur 0 898.8 -0.5 90
2019-04-06 02:00:00 0.9 4 Sudoeste 11 Sur 0 899.4 0.4 86
2019-04-06 01:00:00 0.6 4 Sudoeste 9 Sur 0 899.5 0.9 85
2019-04-06 00:00:00 1.7 7 Sudeste 11 Noroeste 0 899.3 1.7 86
2019-04-05 23:00:00 3.8 9 Noroeste 15 Noroeste 0 899 1.8 78
2019-04-05 22:00:00 3.5 2 Sudoeste 19 Sudoeste 0 898.6 1.9 69
2019-04-05 21:00:00 5.3 10 Oeste 24 Sudoeste 0 897.6 0.9 53
2019-04-05 20:00:00 7.8 14 Sudoeste 31 Sudoeste 0 897.2 0.7 46
2019-04-05 19:00:00 8.1 13 Sudoeste 27 Sudoeste 0 896.7 -0.3 43
2019-04-05 18:00:00 8.2 12 Sur 30 Sudoeste 0 896.7 -0.5 48
2019-04-05 17:00:00 8 13 Sudoeste 32 Sudoeste 0 896.5 -0.7 49
2019-04-05 16:00:00 7.4 16 Sudoeste 28 Sudoeste 0 897 -0.3 52
2019-04-05 15:00:00 7.8 15 Sur 31 Sudoeste 0 897.2 -0.1 51
2019-04-05 14:00:00 8 15 Sudoeste 34 Sudoeste 0 897.2 0.5 53
2019-04-05 13:00:00 6.6 18 Sudoeste 36 Sudoeste 0 897.3 0.9 61
2019-04-05 12:00:00 7.2 20 Sudoeste 36 Sur 0 897.3 0.8 67
2019-04-05 11:00:00 4.6 15 Sudoeste 29 Sur 0 896.7 0.5 78
2019-04-05 10:00:00 4.2 14 Sudoeste 27 Sudoeste 0 896.4 0.4 88
2019-04-05 09:00:00 3.5 7 Sur 22 Sudoeste 0 896.5 0.7 90
2019-04-05 08:00:00 3.3 9 Sur 33 Sudoeste 0 896.2 0.1 89
2019-04-05 07:00:00 2.8 11 Sudoeste 45 Sur 0 896 -0.4 89
2019-04-05 06:00:00 2.8 21 Sur 49 Sudoeste 0.1 895.8 -1.4 89
2019-04-05 05:00:00 2.7 18 Sur 41 Sudoeste 0.5 896.1 -1.9 88
2019-04-05 04:00:00 2.9 22 Sur 50 Sudoeste 0.7 896.4 -1.8 86
2019-04-05 03:00:00 2.8 18 Sur 47 Sur 0.3 897.2 -1.8 86
2019-04-05 02:00:00 2.6 13 Sudoeste 29 Sudoeste 0 898 -1.4 87
2019-04-05 01:00:00 2.8 8 Sudeste 25 Sudeste 0 898.2 -1.1 85
2019-04-05 00:00:00 3.1 7 Sur 21 Sudoeste 0 899 -0.2 84
2019-04-04 23:00:00 3.1 11 Sudoeste 31 Sur 0 899.4 0.4 83
2019-04-04 22:00:00 3.5 12 Sudoeste 37 Sudoeste 0 899.3 0.4 78
2019-04-04 21:00:00 3.9 22 Sudoeste 44 Sudoeste 0 899.2 0.3 70
2019-04-04 20:00:00 6.8 22 Sudoeste 44 Sudoeste 0 899 -0.1 43
2019-04-04 19:00:00 8.2 19 Sudoeste 51 Sudoeste 0 898.9 -0.5 38
2019-04-04 18:00:00 8.1 22 Sudoeste 55 Sur 0 898.9 -1.4 39
2019-04-04 17:00:00 9.1 28 Sudoeste 56 Sudoeste 0 899.1 -1.8 37
2019-04-04 16:00:00 9 26 Sudoeste 50 Sur 0 899.4 -2.6 39
2019-04-04 15:00:00 8.6 23 Sudoeste 45 Sudoeste 0 900.3 -2.6 41
2019-04-04 14:00:00 7.6 15 Sur 39 Sudoeste 0 900.9 -2 41
2019-04-04 13:00:00 7.4 16 Sudoeste 29 Sur 0 902 -1.6 47
2019-04-04 12:00:00 4.4 0 Calma 10 Este 0 902.9 -0.8 66
2019-04-04 11:00:00 2 5 Nordeste 11 Norte 0 902.9 -0.6 76
2019-04-04 10:00:00 -2.6 3 Noroeste 9 Oeste 0 903.6 0.3 92
2019-04-04 09:00:00 -5.4 3 Oeste 7 Sudoeste 0 903.7 0.6 95
2019-04-04 08:00:00 -6.2 9 Oeste 12 Oeste 0 903.5 -0.2 96
2019-04-04 07:00:00 -5.8 4 Oeste 11 Noroeste 0 903.3 -0.5 96
2019-04-04 06:00:00 -3.4 4 Sudoeste 10 Oeste 0 903.1 -1.4 96
2019-04-04 05:00:00 -4.4 4 Sudoeste 12 Noroeste 0 903.7 -1.5 96
2019-04-04 04:00:00 -4.1 0 Calma 7 Sudeste 0 903.8 -1.4 95
2019-04-04 03:00:00 -1.4 0 Calma 11 Sur 0 904.5 -1 94
2019-04-04 02:00:00 -0.8 2 Sur 24 Noroeste 0 905.2 -1 93
2019-04-04 01:00:00 -0.6 17 Noroeste 27 Noroeste 0.2 905.2 -1 94
2019-04-04 00:00:00 -0.5 20 Oeste 42 Noroeste 0.1 905.5 -0.1 93
2019-04-03 23:00:00 -0.7 14 Noroeste 36 Noroeste 0.1 906.2 0.4 95
2019-04-03 22:00:00 0.2 24 Noroeste 35 Oeste 0 906.2 0.5 78
2019-04-03 21:00:00 0.5 16 Noroeste 33 Noroeste 0 905.6 -0.4 71
2019-04-03 20:00:00 1.5 25 Noroeste 42 Noroeste 0 905.8 0 70
2019-04-03 19:00:00 2.7 17 Oeste 39 Noroeste 0.1 905.7 -0.7 76
2019-04-03 18:00:00 0 28 Noroeste 57 Noroeste 0 906 -0.7 91
2019-04-03 17:00:00 3.5 29 Noroeste 55 Noroeste 0 905.8 -1 69
2019-04-03 16:00:00 4.2 26 Noroeste 43 Oeste 0 906.4 -0.4 78
2019-04-03 15:00:00 4.4 27 Noroeste 52 Noroeste 0 906.7 -0.8 77
2019-04-03 14:00:00 3.9 22 Noroeste 48 Noroeste 0 906.8 -1 88
2019-04-03 13:00:00 4.5 23 Norte 34 Norte 0 906.8 -1.3 76
2019-04-03 12:00:00 4.2 19 Noroeste 38 Noroeste 0.1 907.5 -0.8 84
2019-04-03 11:00:00 4.3 19 Noroeste 29 Noroeste 0 907.8 -0.6 78
2019-04-03 10:00:00 1.9 9 Noroeste 22 Noroeste 0.1 908.1 -0.6 89
2019-04-03 09:00:00 2.9 13 Oeste 24 Noroeste 0 908.3 -0.9 82
2019-04-03 08:00:00 2.4 3 Sudoeste 24 Sur 0 908.4 -1.3 90
2019-04-03 07:00:00 2.2 4 Este 10 Sudeste 0 908.7 -1.6 87
2019-04-03 06:00:00 2.9 6 Oeste 20 Oeste 0 909.2 -2.1 83
2019-04-03 05:00:00 3.7 0 Calma 17 Noroeste 0 909.7 -2.3 86
2019-04-03 04:00:00 4.3 3 Noroeste 10 Este 0 910.3 -2.1 86
2019-04-03 03:00:00 4 3 Nordeste 14 Este 0 911.3 -1.9 91
2019-04-03 02:00:00 4.5 3 Norte 10 Oeste 0 912 -1.3 85
2019-04-03 01:00:00 5 0 Calma 14 Norte 0 912.4 -1.2 86
2019-04-03 00:00:00 5 7 Norte 18 Noroeste 0 913.2 0.1 86
2019-04-02 23:00:00 5.4 3 Nordeste 22 Noroeste 0 913.3 -0.1 86
2019-04-02 22:00:00 5.4 7 Noroeste 31 Norte 0 913.6 0 86
2019-04-02 21:00:00 5.9 18 Noroeste 30 Noroeste 0 913.1 -0.9 87
2019-04-02 20:00:00 6.1 13 Noroeste 24 Noroeste 0 913.4 -0.6 88
2019-04-02 19:00:00 6.8 9 Noroeste 23 Norte 0 913.6 -0.6 86
2019-04-02 18:00:00 7 15 Noroeste 25 Nordeste 0 914 -0.7 92
2019-04-02 17:00:00 8.2 16 Nordeste 24 Nordeste 0.3 914 -1.3 92
2019-04-02 16:00:00 9 16 Nordeste 27 Nordeste 0 914.2 -1.4 77
2019-04-02 15:00:00 10.9 15 Nordeste 25 Nordeste 0 914.7 -1.3 65
2019-04-02 14:00:00 10.4 15 Nordeste 30 Nordeste 0 915.3 -0.4 68
2019-04-02 13:00:00 10.7 15 Nordeste 30 Este 0 915.6 -0.3 66
2019-04-02 12:00:00 9.5 4 Noroeste 24 Este 0 916 0.4 64
2019-04-02 11:00:00 9.4 3 Sur 15 Oeste 0 915.7 0.5 69
2019-04-02 10:00:00 6.3 3 Noroeste 8 Oeste 0 915.9 0.8 82
2019-04-02 09:00:00 1.5 5 Sudoeste 8 Oeste 0 915.6 0.5 86
2019-04-02 08:00:00 -1.2 0 Calma -- -- 0 915.2 0.2 91
2019-04-02 07:00:00 -0.4 0 Calma 7 Sudoeste 0 915.1 -0.2 91
2019-04-02 06:00:00 0.8 2 Sudoeste 9 Sudoeste 0 915.1 -0.5 88
2019-04-02 05:00:00 1.2 4 Sudoeste 9 Sudoeste 0 915 -0.6 91
2019-04-02 04:00:00 1.8 3 Oeste 17 Oeste 0 915.3 -0.5 91
2019-04-02 03:00:00 4.1 2 Oeste 7 Oeste 0 915.6 0 88
2019-04-02 02:00:00 3.5 2 Oeste 7 Oeste 0 915.6 0.3 91
2019-04-02 01:00:00 5.5 2 Sudeste 7 Noroeste 0 915.8 0.8 89
2019-04-02 00:00:00 5.8 0 Calma 7 Sur 0 915.6 1.2 89
2019-04-01 23:00:00 6.5 0 Calma 12 Nordeste 0 915.3 1.7 87
2019-04-01 22:00:00 7.6 3 Nordeste 12 Este 0 915 1.7 86
2019-04-01 21:00:00 8.3 6 Nordeste 18 Nordeste 0 914.4 1.3 78
2019-04-01 20:00:00 10.3 7 Norte 21 Nordeste 0 913.6 0.6 67
2019-04-01 19:00:00 10.6 5 Nordeste 22 Nordeste 0 913.3 0.2 68
2019-04-01 18:00:00 10.9 14 Nordeste 26 Nordeste 0 913.1 -0.3 72
2019-04-01 17:00:00 12.4 10 Nordeste 25 Norte 0 913 -0.6 59
2019-04-01 16:00:00 13.7 8 Norte 21 Noroeste 0 913.1 -0.7 53
2019-04-01 15:00:00 13.4 8 Norte 22 Norte 0 913.4 -0.5 52
2019-04-01 14:00:00 11.9 14 Noroeste 22 Noroeste 0 913.6 -0.3 55
2019-04-01 13:00:00 11.6 11 Noroeste 24 Noroeste 0 913.8 0.1 56
2019-04-01 12:00:00 11.4 7 Este 16 Este 0 913.9 0.7 59
2019-04-01 11:00:00 10.3 2 Este 7 Este 0 913.9 0.5 62
2019-04-01 10:00:00 6.1 3 Norte 9 Sudeste 0 913.7 0.4 78
2019-04-01 09:00:00 3.5 5 Sudoeste 11 Oeste 0 913.2 -0.5 84
2019-04-01 08:00:00 2.4 7 Sudoeste 12 Sudoeste 0 913.4 -0.4 83
2019-04-01 07:00:00 1.9 12 Sudoeste 14 Sudoeste 0 913.3 -1 83
2019-04-01 06:00:00 0.1 3 Sur 7 Oeste 0 913.7 -0.7 89
2019-04-01 05:00:00 -0.8 4 Oeste 8 Oeste 0 913.8 -0.4 85
2019-04-01 04:00:00 -0.3 5 Oeste 9 Sudoeste 0 914.3 -0.1 82
2019-04-01 03:00:00 0.2 4 Oeste 6 Noroeste 0 914.4 0.3 78
2019-04-01 02:00:00 2.9 0 Calma 7 Oeste 0 914.2 0.3 72
2019-04-01 01:00:00 3.7 0 Calma 8 Sur 0 914.4 0.7 74
2019-04-01 00:00:00 3.3 2 Oeste 4 Oeste 0 914.1 1 67
2019-03-31 23:00:00 6.7 0 Calma 8 Oeste 0 913.9 1.2 58
2019-03-31 22:00:00 8.4 4 Oeste 9 Oeste 0 913.7 1 53
2019-03-31 21:00:00 10.4 5 Sudoeste 16 Norte 0 913.1 0.6 48
2019-03-31 20:00:00 12.8 5 Norte 25 Norte 0 912.7 -0.1 43
2019-03-31 19:00:00 13.2 9 Norte 23 Norte 0 912.7 -0.4 43
2019-03-31 18:00:00 16.8 10 Norte 26 Nordeste 0 912.5 -1.5 35
2019-03-31 17:00:00 15.9 16 Este 24 Nordeste 0 912.8 -1.8 33
2019-03-31 16:00:00 15.6 9 Este 27 Este 0 913.1 -1.8 32
2019-03-31 15:00:00 15.5 18 Este 31 Este 0 914 -1.2 36
2019-03-31 14:00:00 14.5 21 Este 31 Este 0 914.6 -0.6 40
2019-03-31 13:00:00 13.9 10 Este 17 Nordeste 0 914.9 -0.5 42
2019-03-31 12:00:00 12.3 7 Este 13 Este 0 915.2 -0.1 47
2019-03-31 11:00:00 10.3 0 Calma 6 Este 0 915.2 0 60
2019-03-31 10:00:00 4.4 4 Norte 6 Norte 0 915.4 -0.1 76
2019-03-31 09:00:00 2.2 4 Oeste 10 Sudoeste 0 915.3 -0.3 78
2019-03-31 08:00:00 0.8 6 Sudoeste 9 Sudoeste 0 915.2 -1.1 86
2019-03-31 07:00:00 0 2 Oeste 8 Oeste 0 915.5 -1.2 86
2019-03-31 06:00:00 2.4 4 Sudoeste 7 Sudoeste 0 915.6 -1.3 78
2019-03-31 05:00:00 2.8 3 Sudoeste 7 Sudoeste 0 916.3 -0.7 84
2019-03-31 03:00:00 4 3 Sudoeste 10 Sudoeste 0 916.9 -1 78
2019-03-31 01:00:00 4.8 7 Sudoeste 10 Sudoeste 0 917 -0.8 77
2019-03-31 00:00:00 5.7 6 Sudoeste 9 Oeste 0 917.7 0.3 77
2019-03-30 23:00:00 5 3 Oeste 7 Oeste 0 917.9 1 84
2019-03-30 22:00:00 5.8 0 Calma 4 Noroeste 0 917.8 0.9 78
2019-03-30 21:00:00 8.8 0 Calma 8 Sudeste 0 917.4 1 72
2019-03-30 20:00:00 10.3 4 Sudeste 9 Sudeste 0 916.9 0.6 71
2019-03-30 19:00:00 11.8 2 Sudeste 18 Nordeste 0 916.9 0.4 62
2019-03-30 18:00:00 14.8 6 Norte 22 Norte 0 916.4 -0.2 53
2019-03-30 17:00:00 14.1 11 Norte 21 Norte 0 916.3 -1.1 61
2019-03-30 16:00:00 15.4 15 Este 20 Este 0 916.5 -1.4 35
2019-03-30 15:00:00 17.1 4 Sur 19 Sur 0 916.6 -2 32
2019-03-30 14:00:00 15.8 12 Sur 29 Sur 0 917.4 -1.5 35
2019-03-30 13:00:00 15.5 18 Sur 28 Sur 0 917.9 -1 38
2019-03-30 12:00:00 14 16 Sudeste 28 Sudeste 0 918.6 -0.3 43
2019-03-30 11:00:00 12.7 18 Sudeste 30 Sur 0 918.9 0 43
2019-03-30 10:00:00 11.8 9 Sur 27 Sur 0 918.9 0.1 43
2019-03-30 09:00:00 10.1 16 Sudeste 23 Sur 0 918.9 -0.1 45
2019-03-30 08:00:00 9.8 8 Sur 33 Sudoeste 0 918.9 -0.5 43
2019-03-30 07:00:00 9.8 20 Sudoeste 42 Sudoeste 0 918.8 -0.5 43
2019-03-30 06:00:00 9.3 5 Noroeste 15 Este 0 919 -0.6 43
2019-03-30 05:00:00 6.7 8 Este 12 Este 0 919.4 -0.4 51
2019-03-30 04:00:00 5.8 2 Nordeste 8 Este 0 919.3 -0.3 51
2019-03-30 03:00:00 8.4 6 Este 15 Norte 0 919.6 0 47
2019-03-30 02:00:00 0.9 4 Norte 7 Norte 0 919.8 0 78
2019-03-30 01:00:00 3.6 0 Calma 8 Sudoeste 0 919.6 -0.1 67
2019-03-30 00:00:00 3.7 5 Oeste 10 Sudeste 0 919.6 0.2 65
2019-03-29 23:00:00 9.3 6 Este 13 Sur 0 919.8 0.8 48
2019-03-29 22:00:00 9.1 5 Sur 17 Este 0 919.7 1 52
2019-03-29 21:00:00 8.5 3 Norte 12 Nordeste 0 919.4 0.9 66
2019-03-29 20:00:00 10.6 3 Norte 17 Sur 0 919 0.5 50
2019-03-29 19:00:00 15.2 12 Sur 28 Sur 0 918.7 -0.5 26
2019-03-29 18:00:00 16.2 19 Sur 31 Sur 0 918.5 -1 26
2019-03-29 17:00:00 16.8 19 Sur 34 Sur 0 918.5 -1.7 26
2019-03-29 16:00:00 16.6 17 Sur 32 Sudeste 0 919.2 -1.6 27
2019-03-29 15:00:00 16.4 19 Sur 34 Sur 0 919.5 -1.7 30
2019-03-29 14:00:00 15.2 21 Sur 39 Sur 0 920.2 -1.8 31
2019-03-29 13:00:00 14.8 18 Sur 31 Sudeste 0 920.8 -1.7 34
2019-03-29 12:00:00 13.8 17 Sur 27 Sur 0 921.2 -1.7 37
2019-03-29 11:00:00 11.7 16 Sudeste 26 Sudeste 0 922 -1.3 43
2019-03-29 10:00:00 8.5 7 Nordeste 12 Este 0 922.5 -0.8 64
2019-03-29 09:00:00 3.8 0 Calma 4 Noroeste 0 922.9 -0.3 70
2019-03-29 08:00:00 -0.6 5 Oeste 8 Sudoeste 0 923.3 -0.1 83
2019-03-29 07:00:00 -2.7 5 Oeste 9 Sudoeste 0 923.3 -0.6 83
2019-03-29 06:00:00 -1.8 5 Sudoeste 8 Sudoeste 0 923.2 -1.3 78
2019-03-29 05:00:00 -1.3 5 Sudoeste 8 Oeste 0 923.4 -1.5 76
2019-03-29 04:00:00 -0.2 4 Oeste 11 Oeste 0 923.9 -1.2 72
2019-03-29 03:00:00 0.7 7 Sudoeste 14 Oeste 0 924.5 -0.8 73
2019-03-29 02:00:00 0 4 Sudoeste 9 Sudoeste 0 924.9 -0.5 84
2019-03-29 01:00:00 0 4 Oeste 7 Noroeste 0 925.1 -0.5 92
2019-03-29 00:00:00 0.7 4 Norte 11 Sur 0 925.3 -0.5 93
2019-03-28 23:00:00 2.9 2 Sudeste 8 Sudeste 0 925.4 0 93
2019-03-28 22:00:00 1.9 2 Oeste 7 Sur 0 925.6 0.5 93
2019-03-28 21:00:00 4.8 4 Sur 16 Nordeste 0 925.8 0.8 90
2019-03-28 20:00:00 6.4 9 Nordeste 16 Nordeste 0 925.4 0.5 83
2019-03-28 19:00:00 9.2 8 Nordeste 18 Nordeste 0 925.1 -0.3 70
2019-03-28 18:00:00 10.8 12 Nordeste 26 Nordeste 0 925 -0.8 60
2019-03-28 17:00:00 11.8 15 Nordeste 26 Nordeste 0 924.9 -1.7 58
2019-03-28 16:00:00 12.5 17 Nordeste 27 Nordeste 0 925.4 -1.8 52
2019-03-28 15:00:00 12.2 18 Nordeste 28 Nordeste 0 925.8 -1.5 48
2019-03-28 14:00:00 12.4 13 Nordeste 27 Norte 0 926.6 -1 43
2019-03-28 13:00:00 11.2 16 Nordeste 30 Este 0 927.2 -0.5 50
2019-03-28 12:00:00 11.2 15 Nordeste 24 Nordeste 0 927.3 -0.8 48
2019-03-28 11:00:00 10.1 17 Este 23 Nordeste 0 927.6 -0.5 51
2019-03-28 10:00:00 8.6 4 Nordeste 9 Este 0 927.7 -0.1 62
2019-03-28 09:00:00 4.4 4 Nordeste 8 Nordeste 0 928.1 0.2 79
2019-03-28 08:00:00 -1.5 2 Sudoeste 7 Sudeste 0 928.1 0.6 91
2019-03-28 07:00:00 -3 3 Noroeste 8 Oeste 0 927.8 0.3 90
2019-03-28 06:00:00 -3.4 5 Oeste 8 Noroeste 0 927.9 0.3 91
2019-03-28 05:00:00 -2.7 3 Oeste 5 Oeste 0 927.5 -0.4 88
2019-03-28 04:00:00 -2.9 3 Sur 6 Sur 0 927.5 -0.7 92
2019-03-28 03:00:00 -0.7 4 Sur 6 Sur 0 927.6 -0.3 94
2019-03-28 02:00:00 -2.3 0 Calma 7 Sudeste 0 927.9 0.1 94
2019-03-28 01:00:00 -0.7 0 Calma 6 Este 0 928.2 0.7 93
2019-03-28 00:00:00 0.9 0 Calma 10 Este 0 927.9 0.7 94
2019-03-27 23:00:00 2.1 7 Este 13 Este 0 927.8 1 93
2019-03-27 22:00:00 2.1 0 Calma 17 Nordeste 0 927.5 1.3 91
2019-03-27 21:00:00 3.5 10 Nordeste 21 Nordeste 0 927.2 1.2 89
2019-03-27 20:00:00 4.3 8 Nordeste 20 Nordeste 0 926.8 1.3 83
2019-03-27 19:00:00 7.8 9 Nordeste 22 Norte 0 926.2 0.6 65
2019-03-27 18:00:00 9.8 10 Nordeste 30 Norte 0 926 0.4 52
2019-03-27 17:00:00 11.2 15 Nordeste 27 Nordeste 0 925.5 -0.7 48
2019-03-27 16:00:00 13.6 13 Norte 28 Nordeste 0 925.6 -0.7 43
2019-03-27 15:00:00 12.3 18 Nordeste 28 Nordeste 0 925.6 -0.4 46
2019-03-27 14:00:00 11.9 17 Nordeste 27 Nordeste 0 926.2 0 42
2019-03-27 13:00:00 11.5 16 Nordeste 26 Este 0 926.3 0.4 31
2019-03-27 12:00:00 11.6 9 Este 21 Nordeste 0 926 0.3 29
2019-03-27 11:00:00 10.2 11 Este 18 Nordeste 0 926.2 0.3 40
2019-03-27 10:00:00 8.8 7 Nordeste 13 Este 0 925.9 0.4 47
2019-03-27 09:00:00 3.3 0 Calma 4 Sur 0 925.7 0.4 63
2019-03-27 08:00:00 -1.5 3 Sur 6 Sur 0 925.9 1 78
2019-03-27 07:00:00 -4.4 0 Calma 4 Oeste 0 925.5 0.8 78
2019-03-27 06:00:00 -2.9 0 Calma 4 Oeste 0 925.3 0.4 78
2019-03-27 05:00:00 -3.1 4 Oeste 11 Sur 0 924.9 -0.4 76
2019-03-27 04:00:00 -1.6 4 Sur 6 Sur 0 924.7 -0.8 69
2019-03-27 03:00:00 -1.1 3 Noroeste 9 Noroeste 0 924.9 -0.8 71
2019-03-27 02:00:00 -1.6 3 Sudoeste 9 Oeste 0 925.3 -0.3 68
2019-03-27 01:00:00 -1.5 3 Norte 8 Oeste 0 925.5 0.5 70
2019-03-27 00:00:00 -1.1 4 Oeste 9 Noroeste 0 925.7 0.7 74